Bokchito, Oklahoma
Current Conditions -  °F | °C
As of 4:15 AM on Thursday 23 Oct 2014 (Local Time) from KDUA Reporting Station
Light Rain Light Rain  
Wind Chill: 15°   Ceiling: 9000
Heat Index: 15°   Visibility: 10mi
Dew Point: 13°   Wind: 7mph
Humidity: 88%   Direction: 120°ESE
Pressure: 30.14"   Gusts: NA
Location:  34.02°N, 96.14°W
Report Text: KDUA 230915Z AUTO 12006KT 10SM -RA OVC090 15/13 A3014 RMK AO2 P0001
Loading
Personal Weather Stations






























Interactive Weather Map
Tropical Storm Tracking
New forecast layout! Learn more

10-Day Weather Forecast

Advertisements
Track Severe Weather on mobile